sensor_id;sensor_type;location;lat;lon;timestamp;P1;durP1;ratioP1;P2;durP2;ratioP2
55915;SDS011;41826;53.246;-6.670;2023-06-01T00:02:09;5.63;;;3.80;;
55915;SDS011;41826;53.246;-6.670;2023-06-01T00:04:34;5.82;;;4.72;;
55915;SDS011;41826;53.246;-6.670;2023-06-01T00:07:05;4.93;;;4.38;;
55915;SDS011;41826;53.246;-6.670;2023-06-01T00:09:31;4.50;;;3.38;;
55915;SDS011;41826;53.246;-6.670;2023-06-01T00:11:57;5.15;;;3.67;;
55915;SDS011;41826;53.246;-6.670;2023-06-01T00:14:22;4.88;;;3.58;;
55915;SDS011;41826;53.246;-6.670;2023-06-01T00:16:47;5.60;;;3.95;;
55915;SDS011;41826;53.246;-6.670;2023-06-01T00:19:13;4.72;;;4.13;;
55915;SDS011;41826;53.246;-6.670;2023-06-01T00:21:41;4.50;;;4.00;;
55915;SDS011;41826;53.246;-6.670;2023-06-01T00:24:09;4.88;;;3.70;;
55915;SDS011;41826;53.246;-6.670;2023-06-01T00:26:35;5.88;;;4.43;;
55915;SDS011;41826;53.246;-6.670;2023-06-01T00:29:00;5.15;;;3.65;;
55915;SDS011;41826;53.246;-6.670;2023-06-01T00:31:26;4.97;;;4.15;;
55915;SDS011;41826;53.246;-6.670;2023-06-01T00:33:54;4.47;;;4.00;;
55915;SDS011;41826;53.246;-6.670;2023-06-01T00:36:19;4.93;;;3.70;;
55915;SDS011;41826;53.246;-6.670;2023-06-01T00:38:45;4.78;;;3.70;;
55915;SDS011;41826;53.246;-6.670;2023-06-01T00:41:11;5.35;;;3.97;;
55915;SDS011;41826;53.246;-6.670;2023-06-01T00:43:37;5.40;;;3.83;;
55915;SDS011;41826;53.246;-6.670;2023-06-01T00:46:02;4.93;;;4.30;;
55915;SDS011;41826;53.246;-6.670;2023-06-01T00:48:28;4.50;;;3.78;;
55915;SDS011;41826;53.246;-6.670;2023-06-01T00:50:54;4.63;;;3.70;;
55915;SDS011;41826;53.246;-6.670;2023-06-01T00:53:22;4.85;;;4.18;;
55915;SDS011;41826;53.246;-6.670;2023-06-01T00:55:47;5.38;;;3.60;;
55915;SDS011;41826;53.246;-6.670;2023-06-01T00:58:13;4.60;;;4.05;;
55915;SDS011;41826;53.246;-6.670;2023-06-01T01:00:39;5.00;;;4.25;;
55915;SDS011;41826;53.246;-6.670;2023-06-01T01:03:08;5.03;;;3.88;;
55915;SDS011;41826;53.246;-6.670;2023-06-01T01:05:38;4.85;;;3.85;;
55915;SDS011;41826;53.246;-6.670;2023-06-01T01:08:16;4.55;;;3.70;;
55915;SDS011;41826;53.246;-6.670;2023-06-01T01:10:59;7.32;;;4.70;;
55915;SDS011;41826;53.246;-6.670;2023-06-01T01:13:44;6.07;;;4.40;;
55915;SDS011;41826;53.246;-6.670;2023-06-01T01:21:45;5.70;;;3.88;;
55915;SDS011;41826;53.246;-6.670;2023-06-01T01:30:21;14.88;;;6.50;;
55915;SDS011;41826;53.246;-6.670;2023-06-01T01:32:52;7.38;;;4.10;;
55915;SDS011;41826;53.246;-6.670;2023-06-01T01:35:20;6.78;;;4.25;;
55915;SDS011;41826;53.246;-6.670;2023-06-01T01:37:51;6.97;;;3.97;;
55915;SDS011;41826;53.246;-6.670;2023-06-01T01:40:18;8.88;;;4.85;;
55915;SDS011;41826;53.246;-6.670;2023-06-01T01:42:44;15.10;;;8.35;;
55915;SDS011;41826;53.246;-6.670;2023-06-01T01:45:12;22.63;;;9.95;;
55915;SDS011;41826;53.246;-6.670;2023-06-01T01:47:44;17.67;;;9.85;;
55915;SDS011;41826;53.246;-6.670;2023-06-01T01:50:22;16.80;;;8.93;;
55915;SDS011;41826;53.246;-6.670;2023-06-01T01:52:52;16.60;;;9.93;;
55915;SDS011;41826;53.246;-6.670;2023-06-01T01:55:19;5.95;;;4.43;;
55915;SDS011;41826;53.246;-6.670;2023-06-01T01:57:49;21.05;;;10.30;;
55915;SDS011;41826;53.246;-6.670;2023-06-01T02:00:18;15.82;;;8.85;;
55915;SDS011;41826;53.246;-6.670;2023-06-01T02:02:47;16.77;;;9.45;;
55915;SDS011;41826;53.246;-6.670;2023-06-01T02:05:13;17.70;;;9.93;;
55915;SDS011;41826;53.246;-6.670;2023-06-01T02:07:39;13.82;;;8.13;;
55915;SDS011;41826;53.246;-6.670;2023-06-01T02:10:04;7.82;;;4.82;;
55915;SDS011;41826;53.246;-6.670;2023-06-01T02:12:30;14.20;;;8.75;;
55915;SDS011;41826;53.246;-6.670;2023-06-01T02:14:56;24.30;;;11.32;;
55915;SDS011;41826;53.246;-6.670;2023-06-01T02:17:21;23.83;;;11.43;;
55915;SDS011;41826;53.246;-6.670;2023-06-01T02:19:50;22.10;;;11.55;;
55915;SDS011;41826;53.246;-6.670;2023-06-01T02:22:15;18.85;;;10.18;;
55915;SDS011;41826;53.246;-6.670;2023-06-01T02:24:41;17.77;;;10.75;;
55915;SDS011;41826;53.246;-6.670;2023-06-01T02:27:06;16.05;;;9.45;;
55915;SDS011;41826;53.246;-6.670;2023-06-01T02:29:32;11.75;;;7.10;;
55915;SDS011;41826;53.246;-6.670;2023-06-01T02:31:57;19.50;;;10.15;;
55915;SDS011;41826;53.246;-6.670;2023-06-01T02:34:23;21.92;;;11.13;;
55915;SDS011;41826;53.246;-6.670;2023-06-01T02:36:48;13.35;;;7.65;;
55915;SDS011;41826;53.246;-6.670;2023-06-01T02:39:14;16.42;;;8.43;;
55915;SDS011;41826;53.246;-6.670;2023-06-01T02:41:40;17.50;;;9.52;;
55915;SDS011;41826;53.246;-6.670;2023-06-01T02:44:05;19.73;;;10.18;;
55915;SDS011;41826;53.246;-6.670;2023-06-01T02:46:31;17.65;;;9.55;;
55915;SDS011;41826;53.246;-6.670;2023-06-01T02:48:59;19.55;;;10.18;;
55915;SDS011;41826;53.246;-6.670;2023-06-01T02:51:24;9.55;;;6.53;;
55915;SDS011;41826;53.246;-6.670;2023-06-01T02:53:50;19.05;;;8.10;;
55915;SDS011;41826;53.246;-6.670;2023-06-01T02:56:16;11.77;;;6.65;;
55915;SDS011;41826;53.246;-6.670;2023-06-01T02:58:43;23.67;;;10.70;;
55915;SDS011;41826;53.246;-6.670;2023-06-01T03:01:09;23.35;;;12.50;;
55915;SDS011;41826;53.246;-6.670;2023-06-01T03:03:37;22.15;;;11.07;;
55915;SDS011;41826;53.246;-6.670;2023-06-01T03:06:03;25.95;;;12.10;;
55915;SDS011;41826;53.246;-6.670;2023-06-01T03:08:30;25.52;;;11.68;;
55915;SDS011;41826;53.246;-6.670;2023-06-01T03:10:56;8.80;;;5.55;;
55915;SDS011;41826;53.246;-6.670;2023-06-01T03:13:21;9.70;;;5.28;;
55915;SDS011;41826;53.246;-6.670;2023-06-01T03:15:47;20.88;;;11.18;;
55915;SDS011;41826;53.246;-6.670;2023-06-01T03:18:12;12.18;;;8.02;;
55915;SDS011;41826;53.246;-6.670;2023-06-01T03:20:38;10.57;;;6.00;;
55915;SDS011;41826;53.246;-6.670;2023-06-01T03:23:03;20.67;;;11.50;;
55915;SDS011;41826;53.246;-6.670;2023-06-01T03:25:29;21.67;;;11.95;;
55915;SDS011;41826;53.246;-6.670;2023-06-01T03:27:54;22.85;;;11.77;;
55915;SDS011;41826;53.246;-6.670;2023-06-01T03:30:20;22.70;;;11.98;;
55915;SDS011;41826;53.246;-6.670;2023-06-01T03:32:46;26.00;;;11.98;;
55915;SDS011;41826;53.246;-6.670;2023-06-01T03:35:12;14.05;;;7.97;;
55915;SDS011;41826;53.246;-6.670;2023-06-01T03:37:39;12.02;;;7.70;;
55915;SDS011;41826;53.246;-6.670;2023-06-01T03:40:06;28.40;;;12.88;;
55915;SDS011;41826;53.246;-6.670;2023-06-01T03:42:39;22.45;;;12.20;;
55915;SDS011;41826;53.246;-6.670;2023-06-01T03:45:06;25.77;;;12.30;;
55915;SDS011;41826;53.246;-6.670;2023-06-01T03:47:32;26.98;;;12.82;;
55915;SDS011;41826;53.246;-6.670;2023-06-01T03:50:01;24.73;;;11.50;;
55915;SDS011;41826;53.246;-6.670;2023-06-01T03:52:32;21.85;;;10.73;;
55915;SDS011;41826;53.246;-6.670;2023-06-01T03:54:59;25.83;;;12.98;;
55915;SDS011;41826;53.246;-6.670;2023-06-01T03:57:29;28.58;;;13.90;;
55915;SDS011;41826;53.246;-6.670;2023-06-01T03:59:55;27.88;;;14.32;;
55915;SDS011;41826;53.246;-6.670;2023-06-01T04:02:21;29.83;;;13.65;;
55915;SDS011;41826;53.246;-6.670;2023-06-01T04:04:49;29.63;;;14.15;;
55915;SDS011;41826;53.246;-6.670;2023-06-01T04:07:17;29.83;;;13.50;;
55915;SDS011;41826;53.246;-6.670;2023-06-01T04:09:44;31.35;;;14.88;;
55915;SDS011;41826;53.246;-6.670;2023-06-01T04:12:12;33.50;;;14.43;;
55915;SDS011;41826;53.246;-6.670;2023-06-01T04:14:38;31.15;;;15.15;;
55915;SDS011;41826;53.246;-6.670;2023-06-01T04:17:04;36.17;;;14.45;;
55915;SDS011;41826;53.246;-6.670;2023-06-01T04:19:30;33.78;;;15.35;;
55915;SDS011;41826;53.246;-6.670;2023-06-01T04:21:56;34.58;;;15.25;;
55915;SDS011;41826;53.246;-6.670;2023-06-01T04:24:21;35.10;;;14.50;;
55915;SDS011;41826;53.246;-6.670;2023-06-01T04:26:47;28.30;;;13.77;;
55915;SDS011;41826;53.246;-6.670;2023-06-01T04:29:12;37.78;;;16.60;;
55915;SDS011;41826;53.246;-6.670;2023-06-01T04:31:38;35.85;;;15.73;;
55915;SDS011;41826;53.246;-6.670;2023-06-01T04:34:04;22.60;;;10.65;;
55915;SDS011;41826;53.246;-6.670;2023-06-01T04:36:30;27.75;;;13.05;;
55915;SDS011;41826;53.246;-6.670;2023-06-01T04:38:58;19.60;;;9.98;;
55915;SDS011;41826;53.246;-6.670;2023-06-01T04:41:24;20.23;;;9.40;;
55915;SDS011;41826;53.246;-6.670;2023-06-01T04:43:54;14.05;;;7.18;;
55915;SDS011;41826;53.246;-6.670;2023-06-01T04:46:20;28.83;;;13.10;;
55915;SDS011;41826;53.246;-6.670;2023-06-01T04:48:48;27.67;;;11.93;;
55915;SDS011;41826;53.246;-6.670;2023-06-01T04:51:16;25.33;;;12.65;;
55915;SDS011;41826;53.246;-6.670;2023-06-01T04:53:48;27.40;;;14.32;;
55915;SDS011;41826;53.246;-6.670;2023-06-01T04:56:18;31.15;;;14.43;;
55915;SDS011;41826;53.246;-6.670;2023-06-01T04:58:51;30.67;;;13.65;;
55915;SDS011;41826;53.246;-6.670;2023-06-01T05:01:21;31.67;;;14.10;;
55915;SDS011;41826;53.246;-6.670;2023-06-01T05:03:53;31.85;;;13.93;;
55915;SDS011;41826;53.246;-6.670;2023-06-01T05:06:22;31.58;;;15.10;;
55915;SDS011;41826;53.246;-6.670;2023-06-01T05:08:48;33.25;;;16.17;;
55915;SDS011;41826;53.246;-6.670;2023-06-01T05:11:13;34.15;;;15.15;;
55915;SDS011;41826;53.246;-6.670;2023-06-01T05:13:39;32.08;;;15.65;;
55915;SDS011;41826;53.246;-6.670;2023-06-01T05:16:06;42.13;;;17.33;;
55915;SDS011;41826;53.246;-6.670;2023-06-01T05:18:32;30.60;;;15.82;;
55915;SDS011;41826;53.246;-6.670;2023-06-01T05:21:01;32.35;;;16.38;;
55915;SDS011;41826;53.246;-6.670;2023-06-01T05:23:29;36.67;;;15.23;;
55915;SDS011;41826;53.246;-6.670;2023-06-01T05:25:55;33.53;;;15.75;;
55915;SDS011;41826;53.246;-6.670;2023-06-01T05:28:27;32.53;;;16.07;;
55915;SDS011;41826;53.246;-6.670;2023-06-01T05:30:56;36.47;;;16.05;;
55915;SDS011;41826;53.246;-6.670;2023-06-01T05:33:22;32.78;;;14.65;;
55915;SDS011;41826;53.246;-6.670;2023-06-01T05:35:47;32.35;;;15.50;;
55915;SDS011;41826;53.246;-6.670;2023-06-01T05:38:13;35.35;;;16.13;;
55915;SDS011;41826;53.246;-6.670;2023-06-01T05:40:38;30.33;;;14.70;;
55915;SDS011;41826;53.246;-6.670;2023-06-01T05:43:04;35.15;;;15.38;;
55915;SDS011;41826;53.246;-6.670;2023-06-01T05:45:32;30.95;;;14.77;;
55915;SDS011;41826;53.246;-6.670;2023-06-01T05:47:58;26.90;;;13.98;;
55915;SDS011;41826;53.246;-6.670;2023-06-01T05:50:23;33.28;;;16.13;;
55915;SDS011;41826;53.246;-6.670;2023-06-01T05:52:51;28.50;;;14.90;;
55915;SDS011;41826;53.246;-6.670;2023-06-01T05:55:19;26.70;;;14.95;;
55915;SDS011;41826;53.246;-6.670;2023-06-01T05:57:53;31.17;;;14.20;;
55915;SDS011;41826;53.246;-6.670;2023-06-01T06:00:18;29.42;;;14.60;;
55915;SDS011;41826;53.246;-6.670;2023-06-01T06:02:45;27.65;;;14.48;;
55915;SDS011;41826;53.246;-6.670;2023-06-01T06:05:11;31.40;;;15.30;;
55915;SDS011;41826;53.246;-6.670;2023-06-01T06:07:39;33.25;;;15.48;;
55915;SDS011;41826;53.246;-6.670;2023-06-01T06:10:05;25.38;;;14.73;;
55915;SDS011;41826;53.246;-6.670;2023-06-01T06:12:31;27.25;;;13.23;;
55915;SDS011;41826;53.246;-6.670;2023-06-01T06:14:56;25.23;;;13.10;;
55915;SDS011;41826;53.246;-6.670;2023-06-01T06:19:55;26.20;;;13.32;;
55915;SDS011;41826;53.246;-6.670;2023-06-01T06:22:20;23.33;;;13.50;;
55915;SDS011;41826;53.246;-6.670;2023-06-01T06:24:46;28.10;;;14.10;;
55915;SDS011;41826;53.246;-6.670;2023-06-01T06:27:12;31.08;;;14.13;;
55915;SDS011;41826;53.246;-6.670;2023-06-01T06:29:38;27.13;;;14.23;;
55915;SDS011;41826;53.246;-6.670;2023-06-01T06:32:03;25.40;;;12.60;;
55915;SDS011;41826;53.246;-6.670;2023-06-01T06:34:30;25.27;;;12.77;;
55915;SDS011;41826;53.246;-6.670;2023-06-01T06:37:01;23.20;;;12.32;;
55915;SDS011;41826;53.246;-6.670;2023-06-01T06:39:27;27.15;;;13.40;;
55915;SDS011;41826;53.246;-6.670;2023-06-01T06:41:53;23.35;;;13.55;;
55915;SDS011;41826;53.246;-6.670;2023-06-01T06:44:29;19.25;;;12.45;;
55915;SDS011;41826;53.246;-6.670;2023-06-01T06:47:14;24.38;;;13.27;;
55915;SDS011;41826;53.246;-6.670;2023-06-01T06:49:43;17.38;;;12.38;;
55915;SDS011;41826;53.246;-6.670;2023-06-01T06:52:09;22.13;;;11.52;;
55915;SDS011;41826;53.246;-6.670;2023-06-01T06:54:36;19.50;;;11.80;;
55915;SDS011;41826;53.246;-6.670;2023-06-01T06:57:08;17.15;;;11.98;;
55915;SDS011;41826;53.246;-6.670;2023-06-01T06:59:37;19.83;;;12.20;;
55915;SDS011;41826;53.246;-6.670;2023-06-01T07:02:02;22.10;;;10.88;;
55915;SDS011;41826;53.246;-6.670;2023-06-01T07:04:28;17.88;;;10.60;;
55915;SDS011;41826;53.246;-6.670;2023-06-01T07:06:54;16.98;;;9.80;;
55915;SDS011;41826;53.246;-6.670;2023-06-01T07:09:20;15.38;;;11.00;;
55915;SDS011;41826;53.246;-6.670;2023-06-01T07:11:46;20.50;;;11.45;;
55915;SDS011;41826;53.246;-6.670;2023-06-01T07:14:13;19.58;;;10.88;;
55915;SDS011;41826;53.246;-6.670;2023-06-01T07:16:52;18.73;;;7.05;;
55915;SDS011;41826;53.246;-6.670;2023-06-01T07:19:22;20.42;;;12.10;;
55915;SDS011;41826;53.246;-6.670;2023-06-01T07:22:00;17.48;;;11.68;;
55915;SDS011;41826;53.246;-6.670;2023-06-01T07:24:28;21.15;;;11.05;;
55915;SDS011;41826;53.246;-6.670;2023-06-01T07:26:56;15.30;;;8.30;;
55915;SDS011;41826;53.246;-6.670;2023-06-01T07:29:22;12.93;;;9.25;;
55915;SDS011;41826;53.246;-6.670;2023-06-01T07:31:49;10.15;;;7.68;;
55915;SDS011;41826;53.246;-6.670;2023-06-01T07:34:16;18.80;;;10.48;;
55915;SDS011;41826;53.246;-6.670;2023-06-01T07:36:42;12.90;;;9.65;;
55915;SDS011;41826;53.246;-6.670;2023-06-01T07:39:10;12.43;;;9.15;;
55915;SDS011;41826;53.246;-6.670;2023-06-01T07:41:36;14.40;;;8.90;;
55915;SDS011;41826;53.246;-6.670;2023-06-01T07:44:02;14.50;;;9.02;;
55915;SDS011;41826;53.246;-6.670;2023-06-01T07:46:27;8.35;;;6.93;;
55915;SDS011;41826;53.246;-6.670;2023-06-01T07:48:55;15.10;;;7.68;;
55915;SDS011;41826;53.246;-6.670;2023-06-01T07:51:21;13.38;;;8.60;;
55915;SDS011;41826;53.246;-6.670;2023-06-01T07:53:47;12.77;;;8.63;;
55915;SDS011;41826;53.246;-6.670;2023-06-01T07:56:13;14.43;;;8.90;;
55915;SDS011;41826;53.246;-6.670;2023-06-01T07:58:38;11.45;;;6.68;;
55915;SDS011;41826;53.246;-6.670;2023-06-01T08:01:06;13.90;;;7.95;;
55915;SDS011;41826;53.246;-6.670;2023-06-01T08:03:32;14.20;;;7.55;;
55915;SDS011;41826;53.246;-6.670;2023-06-01T08:05:58;14.40;;;7.70;;
55915;SDS011;41826;53.246;-6.670;2023-06-01T08:08:27;14.13;;;7.15;;
55915;SDS011;41826;53.246;-6.670;2023-06-01T08:10:55;14.73;;;8.25;;
55915;SDS011;41826;53.246;-6.670;2023-06-01T08:13:21;19.58;;;9.23;;
55915;SDS011;41826;53.246;-6.670;2023-06-01T08:15:54;15.30;;;8.57;;
55915;SDS011;41826;53.246;-6.670;2023-06-01T08:18:21;13.85;;;8.20;;
55915;SDS011;41826;53.246;-6.670;2023-06-01T08:20:51;15.50;;;8.68;;
55915;SDS011;41826;53.246;-6.670;2023-06-01T08:23:39;12.00;;;6.75;;
55915;SDS011;41826;53.246;-6.670;2023-06-01T08:26:17;15.05;;;8.65;;
55915;SDS011;41826;53.246;-6.670;2023-06-01T08:28:47;13.90;;;8.20;;
55915;SDS011;41826;53.246;-6.670;2023-06-01T08:31:20;12.50;;;8.77;;
55915;SDS011;41826;53.246;-6.670;2023-06-01T08:33:46;15.25;;;8.52;;
55915;SDS011;41826;53.246;-6.670;2023-06-01T08:36:22;18.33;;;8.98;;
55915;SDS011;41826;53.246;-6.670;2023-06-01T08:38:48;13.55;;;8.40;;
55915;SDS011;41826;53.246;-6.670;2023-06-01T08:41:18;15.20;;;7.22;;
55915;SDS011;41826;53.246;-6.670;2023-06-01T08:46:45;13.77;;;7.93;;
55915;SDS011;41826;53.246;-6.670;2023-06-01T08:49:11;17.27;;;8.25;;
55915;SDS011;41826;53.246;-6.670;2023-06-01T08:51:51;16.42;;;7.82;;
55915;SDS011;41826;53.246;-6.670;2023-06-01T08:54:22;12.95;;;8.27;;
55915;SDS011;41826;53.246;-6.670;2023-06-01T08:57:03;8.13;;;5.30;;
55915;SDS011;41826;53.246;-6.670;2023-06-01T08:59:34;22.05;;;11.85;;
55915;SDS011;41826;53.246;-6.670;2023-06-01T09:02:01;18.73;;;8.75;;
55915;SDS011;41826;53.246;-6.670;2023-06-01T09:04:27;13.02;;;7.97;;
55915;SDS011;41826;53.246;-6.670;2023-06-01T09:06:53;11.95;;;8.73;;
55915;SDS011;41826;53.246;-6.670;2023-06-01T09:09:21;16.88;;;8.15;;
55915;SDS011;41826;53.246;-6.670;2023-06-01T09:12:14;13.38;;;8.45;;
55915;SDS011;41826;53.246;-6.670;2023-06-01T09:14:43;11.10;;;7.15;;
55915;SDS011;41826;53.246;-6.670;2023-06-01T09:17:21;10.00;;;6.80;;
55915;SDS011;41826;53.246;-6.670;2023-06-01T09:19:50;11.55;;;7.03;;
55915;SDS011;41826;53.246;-6.670;2023-06-01T09:22:19;9.95;;;6.10;;
55915;SDS011;41826;53.246;-6.670;2023-06-01T09:24:58;11.68;;;6.45;;
55915;SDS011;41826;53.246;-6.670;2023-06-01T09:27:26;11.27;;;5.97;;
55915;SDS011;41826;53.246;-6.670;2023-06-01T09:30:14;16.35;;;6.63;;
55915;SDS011;41826;53.246;-6.670;2023-06-01T09:32:40;10.15;;;5.75;;
55915;SDS011;41826;53.246;-6.670;2023-06-01T09:38:08;13.48;;;6.05;;
55915;SDS011;41826;53.246;-6.670;2023-06-01T09:40:34;9.60;;;5.78;;
55915;SDS011;41826;53.246;-6.670;2023-06-01T09:43:18;9.13;;;5.75;;
55915;SDS011;41826;53.246;-6.670;2023-06-01T09:46:04;14.52;;;5.72;;
55915;SDS011;41826;53.246;-6.670;2023-06-01T09:48:36;11.02;;;4.90;;
55915;SDS011;41826;53.246;-6.670;2023-06-01T09:51:02;11.13;;;6.20;;
55915;SDS011;41826;53.246;-6.670;2023-06-01T09:53:27;11.35;;;5.80;;
55915;SDS011;41826;53.246;-6.670;2023-06-01T09:55:57;13.32;;;5.97;;
55915;SDS011;41826;53.246;-6.670;2023-06-01T09:58:28;10.70;;;5.25;;
55915;SDS011;41826;53.246;-6.670;2023-06-01T10:01:04;16.58;;;6.22;;
55915;SDS011;41826;53.246;-6.670;2023-06-01T10:03:33;11.70;;;5.85;;
55915;SDS011;41826;53.246;-6.670;2023-06-01T10:05:59;14.45;;;7.00;;
55915;SDS011;41826;53.246;-6.670;2023-06-01T10:08:35;13.80;;;6.65;;
55915;SDS011;41826;53.246;-6.670;2023-06-01T10:11:03;9.98;;;6.43;;
55915;SDS011;41826;53.246;-6.670;2023-06-01T10:13:29;16.63;;;6.13;;
55915;SDS011;41826;53.246;-6.670;2023-06-01T10:15:56;8.38;;;6.03;;
55915;SDS011;41826;53.246;-6.670;2023-06-01T10:18:21;11.95;;;6.32;;
55915;SDS011;41826;53.246;-6.670;2023-06-01T10:20:47;10.68;;;6.25;;
55915;SDS011;41826;53.246;-6.670;2023-06-01T10:23:19;11.15;;;5.80;;
55915;SDS011;41826;53.246;-6.670;2023-06-01T10:25:50;15.05;;;6.57;;
55915;SDS011;41826;53.246;-6.670;2023-06-01T10:28:25;9.00;;;5.45;;
55915;SDS011;41826;53.246;-6.670;2023-06-01T10:33:57;8.48;;;5.60;;
55915;SDS011;41826;53.246;-6.670;2023-06-01T10:36:42;13.90;;;6.45;;
55915;SDS011;41826;53.246;-6.670;2023-06-01T10:39:33;8.68;;;5.38;;
55915;SDS011;41826;53.246;-6.670;2023-06-01T10:44:48;9.25;;;5.05;;
55915;SDS011;41826;53.246;-6.670;2023-06-01T10:52:27;11.95;;;6.82;;
55915;SDS011;41826;53.246;-6.670;2023-06-01T10:57:39;9.95;;;5.47;;
55915;SDS011;41826;53.246;-6.670;2023-06-01T11:02:49;9.98;;;5.82;;
55915;SDS011;41826;53.246;-6.670;2023-06-01T11:05:44;8.77;;;4.75;;
55915;SDS011;41826;53.246;-6.670;2023-06-01T11:13:23;16.58;;;6.72;;
55915;SDS011;41826;53.246;-6.670;2023-06-01T11:18:45;12.35;;;5.03;;
55915;SDS011;41826;53.246;-6.670;2023-06-01T11:21:21;7.68;;;5.30;;
55915;SDS011;41826;53.246;-6.670;2023-06-01T11:23:49;11.85;;;5.60;;
55915;SDS011;41826;53.246;-6.670;2023-06-01T11:26:20;9.15;;;5.60;;
55915;SDS011;41826;53.246;-6.670;2023-06-01T11:28:50;9.82;;;5.13;;
55915;SDS011;41826;53.246;-6.670;2023-06-01T11:31:19;9.82;;;5.53;;
55915;SDS011;41826;53.246;-6.670;2023-06-01T11:33:48;14.40;;;6.25;;
55915;SDS011;41826;53.246;-6.670;2023-06-01T11:36:24;9.00;;;5.18;;
55915;SDS011;41826;53.246;-6.670;2023-06-01T11:38:51;21.80;;;6.70;;
55915;SDS011;41826;53.246;-6.670;2023-06-01T11:41:22;16.95;;;6.03;;
55915;SDS011;41826;53.246;-6.670;2023-06-01T11:43:55;11.60;;;6.03;;
55915;SDS011;41826;53.246;-6.670;2023-06-01T11:46:24;13.30;;;6.45;;
55915;SDS011;41826;53.246;-6.670;2023-06-01T11:49:06;11.68;;;5.35;;
55915;SDS011;41826;53.246;-6.670;2023-06-01T11:51:37;11.00;;;6.05;;
55915;SDS011;41826;53.246;-6.670;2023-06-01T11:54:12;13.85;;;5.90;;
55915;SDS011;41826;53.246;-6.670;2023-06-01T11:56:38;11.10;;;6.05;;
55915;SDS011;41826;53.246;-6.670;2023-06-01T11:59:09;17.85;;;6.60;;
55915;SDS011;41826;53.246;-6.670;2023-06-01T12:01:44;14.15;;;6.40;;
55915;SDS011;41826;53.246;-6.670;2023-06-01T12:04:12;11.63;;;6.25;;
55915;SDS011;41826;53.246;-6.670;2023-06-01T12:06:41;10.27;;;5.68;;
55915;SDS011;41826;53.246;-6.670;2023-06-01T12:09:10;11.70;;;6.03;;
55915;SDS011;41826;53.246;-6.670;2023-06-01T12:11:37;15.15;;;6.65;;
55915;SDS011;41826;53.246;-6.670;2023-06-01T12:14:03;11.57;;;6.07;;
55915;SDS011;41826;53.246;-6.670;2023-06-01T12:19:30;12.05;;;4.93;;
55915;SDS011;41826;53.246;-6.670;2023-06-01T12:22:09;10.70;;;5.72;;
55915;SDS011;41826;53.246;-6.670;2023-06-01T12:24:48;11.55;;;5.53;;
55915;SDS011;41826;53.246;-6.670;2023-06-01T12:27:20;9.50;;;4.63;;
55915;SDS011;41826;53.246;-6.670;2023-06-01T12:29:54;24.77;;;6.55;;
55915;SDS011;41826;53.246;-6.670;2023-06-01T12:32:22;7.45;;;4.45;;
55915;SDS011;41826;53.246;-6.670;2023-06-01T12:35:03;16.17;;;6.55;;
55915;SDS011;41826;53.246;-6.670;2023-06-01T12:39:57;11.88;;;6.50;;
55915;SDS011;41826;53.246;-6.670;2023-06-01T12:42:34;16.40;;;5.85;;
55915;SDS011;41826;53.246;-6.670;2023-06-01T12:45:04;8.45;;;5.90;;
55915;SDS011;41826;53.246;-6.670;2023-06-01T12:50:03;9.35;;;6.28;;
55915;SDS011;41826;53.246;-6.670;2023-06-01T12:52:35;13.20;;;6.30;;
55915;SDS011;41826;53.246;-6.670;2023-06-01T12:55:01;12.38;;;6.78;;
55915;SDS011;41826;53.246;-6.670;2023-06-01T12:57:29;8.77;;;5.72;;
55915;SDS011;41826;53.246;-6.670;2023-06-01T12:59:57;13.38;;;6.47;;
55915;SDS011;41826;53.246;-6.670;2023-06-01T13:02:24;10.02;;;5.85;;
55915;SDS011;41826;53.246;-6.670;2023-06-01T13:04:53;13.10;;;6.20;;
55915;SDS011;41826;53.246;-6.670;2023-06-01T13:07:19;13.45;;;6.53;;
55915;SDS011;41826;53.246;-6.670;2023-06-01T13:09:48;10.00;;;6.70;;
55915;SDS011;41826;53.246;-6.670;2023-06-01T13:12:16;11.25;;;6.20;;
55915;SDS011;41826;53.246;-6.670;2023-06-01T13:14:42;12.82;;;6.43;;
55915;SDS011;41826;53.246;-6.670;2023-06-01T13:17:08;9.88;;;6.13;;
55915;SDS011;41826;53.246;-6.670;2023-06-01T13:19:34;9.23;;;5.63;;
55915;SDS011;41826;53.246;-6.670;2023-06-01T13:21:59;12.23;;;6.30;;
55915;SDS011;41826;53.246;-6.670;2023-06-01T13:24:25;13.60;;;6.88;;
55915;SDS011;41826;53.246;-6.670;2023-06-01T13:26:50;11.35;;;6.28;;
55915;SDS011;41826;53.246;-6.670;2023-06-01T13:29:16;13.60;;;6.28;;
55915;SDS011;41826;53.246;-6.670;2023-06-01T13:31:43;18.77;;;6.63;;
55915;SDS011;41826;53.246;-6.670;2023-06-01T13:34:09;12.48;;;5.95;;
55915;SDS011;41826;53.246;-6.670;2023-06-01T13:36:34;13.35;;;6.82;;
55915;SDS011;41826;53.246;-6.670;2023-06-01T13:39:00;9.43;;;5.63;;
55915;SDS011;41826;53.246;-6.670;2023-06-01T13:41:26;13.00;;;5.78;;
55915;SDS011;41826;53.246;-6.670;2023-06-01T13:43:51;12.95;;;6.32;;
55915;SDS011;41826;53.246;-6.670;2023-06-01T13:46:17;11.23;;;6.05;;
55915;SDS011;41826;53.246;-6.670;2023-06-01T13:48:43;9.95;;;5.85;;
55915;SDS011;41826;53.246;-6.670;2023-06-01T13:51:09;12.15;;;6.28;;
55915;SDS011;41826;53.246;-6.670;2023-06-01T13:53:35;16.48;;;5.05;;
55915;SDS011;41826;53.246;-6.670;2023-06-01T13:56:00;12.68;;;5.82;;
55915;SDS011;41826;53.246;-6.670;2023-06-01T13:58:27;12.93;;;5.40;;
55915;SDS011;41826;53.246;-6.670;2023-06-01T14:00:52;10.45;;;5.28;;
55915;SDS011;41826;53.246;-6.670;2023-06-01T14:03:18;13.85;;;5.38;;
55915;SDS011;41826;53.246;-6.670;2023-06-01T14:05:46;9.85;;;5.82;;
55915;SDS011;41826;53.246;-6.670;2023-06-01T14:08:11;10.23;;;5.60;;
55915;SDS011;41826;53.246;-6.670;2023-06-01T14:10:40;11.80;;;5.32;;
55915;SDS011;41826;53.246;-6.670;2023-06-01T14:13:08;7.68;;;5.10;;
55915;SDS011;41826;53.246;-6.670;2023-06-01T14:15:33;14.40;;;5.40;;
55915;SDS011;41826;53.246;-6.670;2023-06-01T14:18:01;14.20;;;6.18;;
55915;SDS011;41826;53.246;-6.670;2023-06-01T14:20:29;15.65;;;5.82;;
55915;SDS011;41826;53.246;-6.670;2023-06-01T14:22:55;13.32;;;6.30;;
55915;SDS011;41826;53.246;-6.670;2023-06-01T14:25:21;9.20;;;6.05;;
55915;SDS011;41826;53.246;-6.670;2023-06-01T14:27:46;10.82;;;6.20;;
55915;SDS011;41826;53.246;-6.670;2023-06-01T14:30:12;8.43;;;5.05;;
55915;SDS011;41826;53.246;-6.670;2023-06-01T14:32:38;13.07;;;6.45;;
55915;SDS011;41826;53.246;-6.670;2023-06-01T14:35:06;11.25;;;7.00;;
55915;SDS011;41826;53.246;-6.670;2023-06-01T14:37:37;11.55;;;6.93;;
55915;SDS011;41826;53.246;-6.670;2023-06-01T15:09:03;10.70;;;6.05;;
55915;SDS011;41826;53.246;-6.670;2023-06-01T15:11:29;7.85;;;5.30;;
55915;SDS011;41826;53.246;-6.670;2023-06-01T15:13:54;9.60;;;5.60;;
55915;SDS011;41826;53.246;-6.670;2023-06-01T15:16:20;14.43;;;5.15;;
55915;SDS011;41826;53.246;-6.670;2023-06-01T15:18:45;9.40;;;5.32;;
55915;SDS011;41826;53.246;-6.670;2023-06-01T15:21:11;8.77;;;4.68;;
55915;SDS011;41826;53.246;-6.670;2023-06-01T15:23:36;6.80;;;3.63;;
55915;SDS011;41826;53.246;-6.670;2023-06-01T15:26:02;11.13;;;5.03;;
55915;SDS011;41826;53.246;-6.670;2023-06-01T15:28:28;7.47;;;5.22;;
55915;SDS011;41826;53.246;-6.670;2023-06-01T15:30:53;6.63;;;4.47;;
55915;SDS011;41826;53.246;-6.670;2023-06-01T15:33:18;11.88;;;5.85;;
55915;SDS011;41826;53.246;-6.670;2023-06-01T15:35:44;12.82;;;5.47;;
55915;SDS011;41826;53.246;-6.670;2023-06-01T15:38:10;10.45;;;5.03;;
55915;SDS011;41826;53.246;-6.670;2023-06-01T15:40:35;11.38;;;5.10;;
55915;SDS011;41826;53.246;-6.670;2023-06-01T15:43:01;10.32;;;4.65;;
55915;SDS011;41826;53.246;-6.670;2023-06-01T15:45:26;13.55;;;4.68;;
55915;SDS011;41826;53.246;-6.670;2023-06-01T15:47:52;5.72;;;4.65;;
55915;SDS011;41826;53.246;-6.670;2023-06-01T15:50:17;7.38;;;4.63;;